Time;durP1;ratioP1;P1;durP2;ratioP2;P2;SDS_P1;SDS_P2;PMS_P1;PMS_P2;Temp;Humidity;BMP_temperature;BMP_pressure;BME280_temperature;BME280_humidity;BME280_pressure;Samples;Min_cycle;Max_cycle;Signal;HPM_P1;HPM_P2
2022/05/22 00:00:16;;;;;;;4.68;2.92;;;24.40;50.30;;;;;;5052703;28;20017;-74
2022/05/22 00:02:43;;;;;;;4.13;2.70;;;24.30;50.30;;;;;;5041699;28;20432;-80
2022/05/22 00:05:12;;;;;;;4.78;2.90;;;24.20;50.30;;;;;;5051433;28;20051;-77
2022/05/22 00:07:38;;;;;;;4.43;2.90;;;24.20;50.70;;;;;;5052522;28;20028;-86
2022/05/22 00:10:04;;;;;;;4.15;2.85;;;24.10;50.50;;;;;;5052549;28;20037;-75
2022/05/22 00:12:30;;;;;;;4.60;2.85;;;24.10;50.70;;;;;;5050928;28;20056;-75
2022/05/22 00:14:57;;;;;;;3.50;2.60;;;24.10;50.40;;;;;;5052151;28;20017;-88
2022/05/22 00:17:23;;;;;;;5.10;2.75;;;23.90;50.70;;;;;;5050851;28;20124;-81
2022/05/22 00:19:48;;;;;;;4.25;2.78;;;23.80;50.80;;;;;;5052458;28;20048;-75
2022/05/22 00:22:14;;;;;;;4.97;2.80;;;23.60;51.30;;;;;;5050515;28;20510;-78
2022/05/22 00:24:40;;;;;;;5.80;2.90;;;23.50;51.20;;;;;;5052494;28;20499;-76
2022/05/22 00:27:06;;;;;;;7.55;2.80;;;23.30;51.70;;;;;;5052584;28;20040;-79
2022/05/22 00:29:32;;;;;;;4.20;2.60;;;23.30;51.50;;;;;;5052608;28;20025;-80
2022/05/22 00:31:58;;;;;;;4.90;2.92;;;23.30;51.10;;;;;;5049603;28;20070;-77
2022/05/22 00:34:24;;;;;;;4.20;2.60;;;23.60;50.30;;;;;;5052649;28;20072;-75
2022/05/22 00:36:50;;;;;;;3.65;2.55;;;23.70;50.30;;;;;;5051039;28;20535;-77
2022/05/22 00:39:16;;;;;;;4.28;2.42;;;23.70;50.20;;;;;;5052308;28;20027;-76
2022/05/22 00:41:48;;;;;;;6.10;3.00;;;23.70;50.40;;;;;;5051519;28;20434;-82
2022/05/22 00:44:14;;;;;;;5.70;2.80;;;23.10;51.20;;;;;;5054432;28;20103;-80
2022/05/22 00:46:40;;;;;;;5.03;2.67;;;23.00;51.30;;;;;;5055664;28;20111;-76
2022/05/22 00:49:14;;;;;;;5.97;2.78;;;23.20;51.50;;;;;;5055355;28;20017;-79
2022/05/22 00:51:49;;;;;;;5.28;2.65;;;23.40;50.80;;;;;;5056129;28;20040;-76
2022/05/22 00:54:22;;;;;;;4.43;2.67;;;23.60;50.60;;;;;;5055927;28;20025;-76
2022/05/22 00:57:10;;;;;;;4.00;2.60;;;23.70;50.30;;;;;;5050970;28;20087;-76
2022/05/22 00:59:41;;;;;;;4.22;2.63;;;23.90;50.20;;;;;;5053261;28;20028;-76
2022/05/22 01:02:07;;;;;;;5.03;2.95;;;23.90;50.00;;;;;;5035929;28;20057;-77
2022/05/22 01:04:36;;;;;;;5.00;2.72;;;23.80;49.90;;;;;;5035639;28;20386;-77
2022/05/22 01:07:05;;;;;;;3.95;2.60;;;23.90;50.10;;;;;;5049261;28;20056;-77
2022/05/22 01:09:32;;;;;;;5.30;2.80;;;23.80;49.80;;;;;;5054481;28;20468;-78
2022/05/22 01:12:16;;;;;;;4.72;2.55;;;23.80;50.10;;;;;;5055714;28;20029;-76
2022/05/22 01:14:42;;;;;;;7.85;2.90;;;23.70;49.80;;;;;;5055733;28;20345;-76
2022/05/22 01:17:10;;;;;;;3.92;2.78;;;23.70;50.40;;;;;;5054453;28;20055;-75
2022/05/22 01:19:36;;;;;;;4.32;2.80;;;23.70;50.40;;;;;;5053353;28;20029;-80
2022/05/22 01:22:12;;;;;;;4.20;2.80;;;23.60;50.60;;;;;;5055134;28;20398;-79
2022/05/22 01:24:38;;;;;;;4.15;2.70;;;23.60;50.90;;;;;;5055369;28;20021;-75
2022/05/22 01:27:09;;;;;;;5.00;2.95;;;23.50;50.40;;;;;;5053458;28;20033;-76
2022/05/22 01:29:35;;;;;;;4.10;2.75;;;23.50;50.50;;;;;;5054787;28;20051;-78
2022/05/22 01:32:00;;;;;;;5.93;2.88;;;23.60;50.50;;;;;;5054665;28;20029;-84
2022/05/22 01:34:26;;;;;;;4.32;2.90;;;23.60;50.30;;;;;;5055715;28;20035;-76
2022/05/22 01:36:52;;;;;;;5.10;2.70;;;23.50;49.90;;;;;;5042090;28;20017;-76
2022/05/22 01:39:17;;;;;;;4.90;2.72;;;23.10;50.40;;;;;;5036069;28;20468;-76
2022/05/22 01:41:43;;;;;;;5.18;2.67;;;23.10;50.30;;;;;;5055499;28;20110;-87
2022/05/22 01:44:09;;;;;;;5.35;3.10;;;23.10;50.30;;;;;;5056188;28;20365;-77
2022/05/22 01:46:35;;;;;;;5.40;3.00;;;23.00;50.30;;;;;;5054719;28;20112;-80
2022/05/22 01:49:02;;;;;;;4.32;2.80;;;23.20;50.10;;;;;;5086100;28;20028;-78
2022/05/22 01:51:32;;;;;;;4.18;2.63;;;23.10;50.20;;;;;;5055446;28;20021;-82
2022/05/22 01:54:01;;;;;;;;;;;23.10;50.30;;;;;;5052469;28;20061;-75
2022/05/22 01:56:28;;;;;;;4.65;2.67;;;23.10;49.90;;;;;;5053915;28;19963;-83
2022/05/22 01:58:54;;;;;;;6.30;2.50;;;23.10;49.50;;;;;;5054798;28;20091;-85
2022/05/22 02:01:20;;;;;;;5.07;2.50;;;22.90;49.70;;;;;;5055201;28;20045;-76
2022/05/22 02:03:45;;;;;;;5.20;2.38;;;23.00;49.90;;;;;;5054978;28;20035;-76
2022/05/22 02:06:11;;;;;;;4.32;2.50;;;22.90;49.80;;;;;;5049168;28;20033;-77
2022/05/22 02:08:38;;;;;;;4.75;2.40;;;22.80;50.00;;;;;;5055060;28;20467;-79
2022/05/22 02:11:06;;;;;;;3.88;2.38;;;22.60;50.30;;;;;;5053497;28;20075;-77
2022/05/22 02:13:38;;;;;;;4.32;2.50;;;22.60;50.20;;;;;;5053707;28;20491;-83
2022/05/22 02:16:04;;;;;;;3.55;2.15;;;22.60;50.00;;;;;;5052443;28;20036;-82
2022/05/22 02:18:30;;;;;;;3.50;2.40;;;22.90;49.60;;;;;;5055073;28;20047;-75
2022/05/22 02:20:56;;;;;;;3.53;2.35;;;22.90;49.20;;;;;;5054826;28;20493;-76
2022/05/22 02:23:22;;;;;;;3.55;2.10;;;22.90;48.90;;;;;;5054409;28;20123;-84
2022/05/22 02:25:52;;;;;;;3.65;2.20;;;22.90;49.20;;;;;;5053395;28;20074;-75
2022/05/22 02:28:19;;;;;;;3.40;2.30;;;22.90;49.10;;;;;;5053275;28;20033;-76
2022/05/22 02:30:48;;;;;;;4.03;2.40;;;22.90;49.00;;;;;;5044628;28;20029;-78
2022/05/22 02:33:14;;;;;;;6.88;2.40;;;23.00;48.80;;;;;;5050915;28;20029;-76
2022/05/22 02:35:40;;;;;;;3.58;2.20;;;23.20;48.80;;;;;;5051155;28;20036;-76
2022/05/22 02:38:06;;;;;;;3.63;2.17;;;23.20;48.50;;;;;;5034589;28;20021;-76
2022/05/22 02:40:33;;;;;;;7.63;2.83;;;23.10;48.60;;;;;;5034478;28;20067;-80
2022/05/22 02:43:00;;;;;;;3.97;2.40;;;23.10;48.90;;;;;;5032682;28;20033;-75
2022/05/22 02:45:29;;;;;;;4.93;2.40;;;23.10;49.20;;;;;;5038499;28;20017;-76
2022/05/22 02:47:55;;;;;;;3.95;2.35;;;23.00;49.30;;;;;;5054070;28;20132;-78
2022/05/22 02:50:23;;;;;;;3.83;2.53;;;22.70;49.80;;;;;;5053990;28;20467;-79
2022/05/22 02:52:50;;;;;;;4.75;2.40;;;22.60;50.00;;;;;;5054039;28;20032;-78
2022/05/22 02:55:17;;;;;;;3.70;2.25;;;22.70;50.40;;;;;;5051714;28;20025;-88
2022/05/22 02:57:43;;;;;;;3.80;2.30;;;22.60;50.20;;;;;;5052550;28;20112;-79
2022/05/22 03:00:23;;;;;;;3.60;2.20;;;22.50;50.20;;;;;;5053500;28;20431;-80
2022/05/22 03:02:50;;;;;;;4.63;2.40;;;22.50;50.20;;;;;;5052508;28;20052;-84
2022/05/22 03:05:16;;;;;;;4.28;2.45;;;22.30;51.00;;;;;;5053952;28;20021;-76
2022/05/22 03:07:41;;;;;;;3.13;2.10;;;22.10;50.80;;;;;;5052649;28;20036;-81
2022/05/22 03:10:10;;;;;;;4.85;2.40;;;22.10;50.90;;;;;;5053912;28;20393;-79
2022/05/22 03:12:36;;;;;;;4.60;2.45;;;22.10;51.10;;;;;;5052435;28;20471;-75
2022/05/22 03:15:03;;;;;;;5.80;2.60;;;22.20;51.20;;;;;;5050710;28;20509;-77
2022/05/22 03:17:29;;;;;;;5.20;2.50;;;22.30;51.20;;;;;;5053908;28;20049;-77
2022/05/22 03:19:55;;;;;;;4.47;2.42;;;22.30;51.30;;;;;;5053405;28;20479;-87
2022/05/22 03:22:21;;;;;;;3.75;2.30;;;22.20;51.50;;;;;;5052352;28;20037;-77
2022/05/22 03:24:47;;;;;;;4.45;2.60;;;22.20;51.70;;;;;;5053102;28;20068;-76
2022/05/22 03:27:16;;;;;;;4.22;2.67;;;22.20;51.60;;;;;;5053476;28;20096;-84
2022/05/22 03:29:45;;;;;;;5.05;2.58;;;22.60;51.50;;;;;;5053782;28;20463;-77
2022/05/22 03:32:11;;;;;;;4.72;2.58;;;22.60;51.20;;;;;;5052585;28;20025;-76
2022/05/22 03:34:38;;;;;;;3.97;2.30;;;22.50;51.20;;;;;;5051807;28;20021;-76
2022/05/22 03:37:05;;;;;;;3.55;2.28;;;22.50;51.00;;;;;;5053107;28;20083;-77
2022/05/22 03:39:30;;;;;;;4.07;2.90;;;22.40;51.40;;;;;;5052087;28;20025;-80
2022/05/22 03:41:58;;;;;;;4.38;2.58;;;22.40;51.10;;;;;;5051929;28;20396;-82
2022/05/22 03:44:24;;;;;;;4.93;2.83;;;22.40;51.10;;;;;;5053032;28;20111;-86
2022/05/22 03:46:49;;;;;;;5.07;2.30;;;22.50;51.20;;;;;;5051313;28;20060;-82
2022/05/22 03:49:15;;;;;;;5.82;2.85;;;22.50;51.30;;;;;;5052228;28;20052;-78
2022/05/22 03:51:42;;;;;;;4.63;2.60;;;22.20;51.70;;;;;;5053187;28;20033;-80
2022/05/22 03:54:08;;;;;;;4.60;2.38;;;22.10;52.00;;;;;;5050549;28;20395;-83
2022/05/22 03:56:35;;;;;;;4.57;2.50;;;22.10;52.00;;;;;;5051721;28;20035;-76
2022/05/22 03:59:02;;;;;;;5.13;2.95;;;22.20;51.90;;;;;;5051876;28;20106;-77
2022/05/22 04:01:28;;;;;;;4.97;2.40;;;22.10;51.90;;;;;;5050122;28;20080;-77
2022/05/22 04:03:54;;;;;;;4.38;2.60;;;22.20;51.60;;;;;;5053036;28;20060;-82
2022/05/22 04:06:19;;;;;;;5.40;2.35;;;22.40;51.40;;;;;;5051711;28;20028;-77
2022/05/22 04:08:45;;;;;;;3.38;2.30;;;22.40;51.10;;;;;;5052467;28;20387;-76
2022/05/22 04:11:14;;;;;;;4.72;2.60;;;22.50;51.00;;;;;;5051953;28;20387;-76
2022/05/22 04:13:40;;;;;;;4.03;2.60;;;22.50;50.70;;;;;;5045226;28;20021;-77
2022/05/22 04:16:06;;;;;;;4.15;2.50;;;22.60;50.80;;;;;;5049113;28;20096;-76
2022/05/22 04:18:33;;;;;;;6.10;2.50;;;22.70;50.80;;;;;;5054766;28;20017;-77
2022/05/22 04:20:59;;;;;;;3.70;2.53;;;22.90;50.70;;;;;;5057931;28;20115;-77
2022/05/22 04:26:11;;;;;;;4.03;2.38;;;22.80;50.50;;;;;;5053957;28;20718;-75
2022/05/22 04:28:40;;;;;;;4.45;2.50;;;22.70;51.00;;;;;;5055492;28;20378;-82
2022/05/22 04:31:06;;;;;;;4.45;2.40;;;22.70;50.90;;;;;;5035471;28;20102;-79
2022/05/22 04:33:32;;;;;;;4.18;2.38;;;22.70;50.80;;;;;;5053206;28;20426;-80
2022/05/22 04:35:59;;;;;;;3.95;2.47;;;22.80;50.60;;;;;;5055875;28;20036;-78
2022/05/22 04:38:24;;;;;;;5.65;2.50;;;23.00;50.30;;;;;;5055268;28;20388;-80
2022/05/22 04:41:01;;;;;;;4.38;2.60;;;23.20;49.80;;;;;;5054151;28;20506;-76
2022/05/22 04:43:28;;;;;;;4.05;2.63;;;23.30;50.20;;;;;;5056364;28;20036;-83
2022/05/22 04:45:54;;;;;;;4.80;2.60;;;23.20;49.80;;;;;;5056607;28;20478;-76
2022/05/22 04:48:22;;;;;;;6.90;2.58;;;23.10;50.20;;;;;;5055051;28;20119;-81
2022/05/22 04:50:49;;;;;;;4.38;2.53;;;23.10;50.20;;;;;;5054663;28;20102;-76
2022/05/22 04:53:17;;;;;;;4.28;2.50;;;23.20;50.10;;;;;;5047731;28;20082;-78
2022/05/22 04:55:43;;;;;;;4.70;2.40;;;23.30;49.90;;;;;;5056232;28;20044;-79
2022/05/22 04:58:09;;;;;;;4.03;2.40;;;23.50;49.60;;;;;;5054319;28;20021;-76
2022/05/22 05:00:35;;;;;;;4.63;2.78;;;23.40;49.60;;;;;;5046100;28;20059;-76
2022/05/22 05:03:01;;;;;;;4.03;2.38;;;23.50;49.70;;;;;;5056170;28;20392;-80
2022/05/22 05:05:28;;;;;;;5.22;2.35;;;23.70;49.50;;;;;;5053489;28;20021;-76
2022/05/22 05:07:54;;;;;;;5.35;2.15;;;23.90;48.90;;;;;;5055277;28;20479;-78
2022/05/22 05:10:24;;;;;;;4.38;2.33;;;23.80;49.30;;;;;;5057111;28;20476;-76
2022/05/22 05:12:49;;;;;;;6.10;2.40;;;23.80;48.80;;;;;;5075610;28;20020;-77
2022/05/22 05:15:17;;;;;;;5.85;2.30;;;23.70;49.20;;;;;;5055176;28;20273;-76
2022/05/22 05:17:45;;;;;;;4.40;2.10;;;23.80;49.00;;;;;;5055461;28;20122;-79
2022/05/22 05:20:13;;;;;;;5.85;2.50;;;23.70;49.00;;;;;;5064358;28;20382;-75
2022/05/22 05:22:38;;;;;;;6.60;2.20;;;23.80;49.30;;;;;;5055031;28;20043;-76
2022/05/22 05:25:05;;;;;;;3.90;2.30;;;23.80;49.30;;;;;;5052897;28;20013;-78
2022/05/22 05:27:32;;;;;;;4.03;2.60;;;23.90;49.30;;;;;;5045992;28;20388;-82
2022/05/22 05:29:57;;;;;;;6.03;2.40;;;23.90;49.40;;;;;;5053379;28;20033;-88
2022/05/22 05:32:24;;;;;;;3.60;2.20;;;23.80;49.60;;;;;;5051470;28;20025;-81
2022/05/22 05:35:02;;;;;;;3.95;2.20;;;23.90;49.20;;;;;;5057691;28;20021;-78
2022/05/22 05:37:28;;;;;;;4.00;2.35;;;24.20;49.00;;;;;;4702533;28;10000181;-78
2022/05/22 05:39:54;;;;;;;4.68;2.60;;;24.20;48.50;;;;;;5052552;28;20380;-78
2022/05/22 05:42:22;;;;;;;3.40;2.17;;;24.20;48.90;;;;;;5051706;28;20037;-93
2022/05/22 05:44:48;;;;;;;4.50;2.65;;;24.40;49.10;;;;;;5033401;28;20025;-79
2022/05/22 05:47:14;;;;;;;5.10;2.50;;;24.40;48.80;;;;;;5033121;28;20033;-83
2022/05/22 05:49:40;;;;;;;5.65;2.25;;;24.40;48.60;;;;;;5032121;28;20037;-79
2022/05/22 05:52:08;;;;;;;4.57;2.50;;;23.80;50.10;;;;;;5043190;28;20029;-76
2022/05/22 05:54:33;;;;;;;4.75;2.30;;;24.00;49.60;;;;;;5041292;28;20037;-77
2022/05/22 05:56:59;;;;;;;3.45;2.10;;;24.20;49.50;;;;;;5052725;28;20494;-80
2022/05/22 05:59:26;;;;;;;4.80;2.45;;;24.40;48.80;;;;;;5051012;28;20033;-75
2022/05/22 06:01:52;;;;;;;3.58;2.15;;;24.60;49.10;;;;;;5051287;28;20048;-81
2022/05/22 06:04:18;;;;;;;3.33;2.05;;;24.80;48.60;;;;;;5050707;28;20035;-75
2022/05/22 06:06:44;;;;;;;4.88;2.10;;;24.60;48.50;;;;;;5046954;28;20044;-83
2022/05/22 06:09:10;;;;;;;4.15;2.13;;;24.70;49.00;;;;;;5050892;28;20025;-77
2022/05/22 06:11:35;;;;;;;4.80;2.70;;;24.50;48.50;;;;;;5049248;28;20104;-76
2022/05/22 06:14:02;;;;;;;4.13;2.03;;;24.80;48.70;;;;;;5051257;28;20081;-75
2022/05/22 06:16:28;;;;;;;4.13;2.20;;;25.00;48.00;;;;;;5051587;28;20438;-77
2022/05/22 06:18:55;;;;;;;3.88;2.13;;;25.00;47.80;;;;;;5070366;28;20043;-75
2022/05/22 06:21:22;;;;;;;4.57;2.03;;;25.10;48.30;;;;;;5062367;28;20021;-87
2022/05/22 06:23:49;;;;;;;3.65;2.00;;;24.90;48.30;;;;;;5048835;28;20594;-77
2022/05/22 06:26:20;;;;;;;4.47;2.22;;;25.10;48.70;;;;;;5057201;28;20036;-77
2022/05/22 06:28:46;;;;;;;;;;;24.90;47.90;;;;;;5053401;28;20021;-75
2022/05/22 06:31:12;;;;;;;5.00;2.10;;;24.60;48.70;;;;;;5052874;28;19909;-84
2022/05/22 06:33:39;;;;;;;3.72;2.25;;;23.90;50.10;;;;;;5052520;28;20028;-82
2022/05/22 06:36:09;;;;;;;4.18;1.92;;;24.40;50.10;;;;;;5052267;28;20029;-79
2022/05/22 06:41:20;;;;;;;4.05;2.22;;;24.80;48.50;;;;;;5053230;28;20083;-75
2022/05/22 06:43:49;;;;;;;4.15;1.63;;;24.80;48.60;;;;;;5046121;28;20024;-83
2022/05/22 06:46:16;;;;;;;4.43;2.08;;;24.90;48.10;;;;;;5051582;28;20116;-76
2022/05/22 06:48:41;;;;;;;4.65;2.10;;;25.00;48.50;;;;;;5044577;28;20061;-85
2022/05/22 06:51:09;;;;;;;3.83;2.00;;;25.40;47.70;;;;;;5032456;28;20395;-82
2022/05/22 06:53:35;;;;;;;4.25;2.15;;;25.60;48.50;;;;;;5032710;28;20026;-79
2022/05/22 06:56:01;;;;;;;4.68;2.03;;;26.00;47.30;;;;;;5047418;28;20060;-74
2022/05/22 06:58:26;;;;;;;4.03;1.98;;;25.70;47.50;;;;;;5047379;28;20029;-89
2022/05/22 07:00:53;;;;;;;3.47;1.90;;;25.30;47.30;;;;;;5036725;28;20452;-79
2022/05/22 07:03:19;;;;;;;3.70;1.92;;;25.30;47.40;;;;;;5050546;28;20028;-80
2022/05/22 07:05:45;;;;;;;3.83;2.30;;;24.90;48.80;;;;;;5055980;28;20383;-78
2022/05/22 07:08:12;;;;;;;5.28;2.00;;;25.10;47.50;;;;;;5054046;28;20036;-81
2022/05/22 07:13:22;;;;;;;4.25;1.80;;;25.70;46.60;;;;;;5037732;28;20391;-82
2022/05/22 07:16:02;;;;;;;5.72;1.92;;;26.20;46.10;;;;;;5052759;28;20021;-77
2022/05/22 07:18:28;;;;;;;4.93;2.38;;;25.90;45.00;;;;;;5050423;28;20387;-86
2022/05/22 07:20:54;;;;;;;3.83;1.80;;;26.30;46.10;;;;;;5054236;28;20029;-76
2022/05/22 07:23:20;;;;;;;3.58;1.88;;;26.40;44.70;;;;;;5053814;28;20029;-77
2022/05/22 07:25:45;;;;;;;4.38;1.98;;;26.80;46.50;;;;;;5053619;28;20029;-77
2022/05/22 07:28:11;;;;;;;5.75;1.90;;;26.70;43.90;;;;;;5037286;28;20026;-76
2022/05/22 07:30:37;;;;;;;5.50;1.85;;;26.50;44.20;;;;;;5040372;28;20024;-81
2022/05/22 07:33:02;;;;;;;6.07;1.90;;;26.60;43.50;;;;;;5042291;28;20028;-84
2022/05/22 07:35:28;;;;;;;4.60;2.00;;;26.60;43.60;;;;;;5053258;28;20483;-84
2022/05/22 07:37:57;;;;;;;4.20;1.95;;;26.80;43.60;;;;;;4700188;28;9999867;-82
2022/05/22 07:40:23;;;;;;;4.05;1.70;;;26.90;43.90;;;;;;5030543;28;20120;-76
2022/05/22 07:42:51;;;;;;;3.97;1.90;;;26.90;42.60;;;;;;5031245;28;20112;-78
2022/05/22 07:45:17;;;;;;;4.53;1.80;;;27.10;43.20;;;;;;5043355;28;20032;-84
2022/05/22 07:47:49;;;;;;;4.00;1.75;;;27.00;43.60;;;;;;5049902;28;20063;-79
2022/05/22 07:50:17;;;;;;;9.60;2.00;;;26.40;43.70;;;;;;5050486;28;20024;-81
2022/05/22 07:52:47;;;;;;;5.95;1.75;;;26.40;44.30;;;;;;5048367;28;20025;-79
2022/05/22 07:55:18;;;;;;;4.25;1.90;;;26.60;44.30;;;;;;5047336;28;20021;-82
2022/05/22 07:57:49;;;;;;;3.72;2.10;;;26.70;43.80;;;;;;5054040;28;20032;-79
2022/05/22 08:00:18;;;;;;;4.82;2.00;;;26.50;43.90;;;;;;5048299;28;20082;-81
2022/05/22 08:02:45;;;;;;;6.05;2.03;;;26.30;44.60;;;;;;5047266;28;20453;-77
2022/05/22 08:05:15;;;;;;;6.47;2.30;;;26.40;45.40;;;;;;5032504;28;20068;-82
2022/05/22 08:07:41;;;;;;;5.85;2.22;;;26.30;45.50;;;;;;5058931;28;20060;-81
2022/05/22 08:10:08;;;;;;;6.18;2.30;;;26.60;45.20;;;;;;5072544;28;20067;-75
2022/05/22 08:12:39;;;;;;;5.40;2.00;;;26.60;45.00;;;;;;5072942;28;20035;-79
2022/05/22 08:15:07;;;;;;;4.22;2.00;;;26.60;44.10;;;;;;5054891;28;20021;-76
2022/05/22 08:17:36;;;;;;;5.38;1.90;;;26.60;44.70;;;;;;5049857;28;20031;-80
2022/05/22 08:20:16;;;;;;;4.57;1.80;;;26.70;44.60;;;;;;5051591;28;20044;-79
2022/05/22 08:22:45;;;;;;;5.03;1.98;;;26.50;44.20;;;;;;5053061;28;20047;-82
2022/05/22 08:25:17;;;;;;;4.07;1.77;;;26.60;44.60;;;;;;4701669;28;9999854;-81
2022/05/22 08:27:43;;;;;;;4.57;1.92;;;26.60;44.10;;;;;;5049098;28;20514;-81
2022/05/22 08:30:13;;;;;;;5.28;2.20;;;26.50;44.30;;;;;;5039796;28;20033;-81
2022/05/22 08:32:40;;;;;;;4.80;1.73;;;26.40;44.30;;;;;;5044494;28;20040;-82
2022/05/22 08:35:09;;;;;;;4.43;1.80;;;26.60;44.60;;;;;;5050203;28;20032;-79
2022/05/22 08:37:35;;;;;;;5.43;1.83;;;26.60;44.50;;;;;;5049712;28;20021;-80
2022/05/22 08:40:02;;;;;;;5.82;1.80;;;26.80;43.50;;;;;;5056616;28;20501;-77
2022/05/22 08:42:41;;;;;;;5.00;1.90;;;26.80;43.60;;;;;;5049682;28;20044;-81
2022/05/22 08:45:28;;;;;;;5.18;1.70;;;26.70;44.00;;;;;;5050814;28;20159;-81
2022/05/22 08:48:26;;;;;;;4.88;1.80;;;26.90;44.50;;;;;;5048552;28;20025;-85
2022/05/22 08:50:56;;;;;;;5.15;2.15;;;26.90;43.40;;;;;;5045081;28;20044;-84
2022/05/22 08:53:35;;;;;;;4.40;1.98;;;26.90;43.60;;;;;;5046160;28;20100;-84
2022/05/22 08:59:23;;;;;;;5.05;1.65;;;26.80;43.40;;;;;;5042939;28;20032;-81
2022/05/22 09:02:08;;;;;;;5.07;1.90;;;27.20;43.80;;;;;;5077027;28;20052;-81
2022/05/22 09:04:35;;;;;;;3.40;1.80;;;27.50;43.60;;;;;;5055648;28;20053;-80
2022/05/22 09:07:13;;;;;;;11.07;5.22;;;27.60;42.70;;;;;;5061902;28;20449;-78
2022/05/22 09:09:41;;;;;;;5.28;1.80;;;27.50;42.60;;;;;;5065211;28;20078;-80
2022/05/22 09:12:10;;;;;;;3.75;1.73;;;27.30;42.50;;;;;;5054511;28;20403;-78
2022/05/22 09:14:49;;;;;;;4.95;1.60;;;27.20;42.60;;;;;;5064340;28;20418;-76
2022/05/22 09:17:23;;;;;;;6.65;2.30;;;26.70;42.40;;;;;;5054580;28;20025;-76
2022/05/22 09:20:03;;;;;;;4.82;1.83;;;26.40;42.70;;;;;;5055979;28;20025;-78
2022/05/22 09:22:37;;;;;;;3.25;1.70;;;26.30;43.60;;;;;;5054494;28;20043;-79
2022/05/22 09:25:23;;;;;;;4.68;1.90;;;26.10;43.10;;;;;;5052617;28;20028;-77
2022/05/22 09:28:00;;;;;;;4.47;1.50;;;26.30;44.50;;;;;;5070441;28;20487;-78
2022/05/22 09:30:54;;;;;;;3.97;1.65;;;26.50;43.40;;;;;;4717404;28;10000449;-79
2022/05/22 09:33:57;;;;;;;102.50;11.85;;;26.70;42.90;;;;;;5053899;28;20021;-82
2022/05/22 09:36:29;;;;;;;3.40;1.52;;;26.00;43.00;;;;;;4994758;28;20037;-82
2022/05/22 09:39:14;;;;;;;7.07;2.80;;;26.30;44.10;;;;;;5011740;28;20408;-79
2022/05/22 09:42:03;;;;;;;9.35;2.35;;;26.70;43.90;;;;;;5011298;28;20500;-82
2022/05/22 09:44:51;;;;;;;20.67;4.78;;;27.00;43.00;;;;;;4933291;29;20071;-82
2022/05/22 09:47:47;;;;;;;5.95;2.28;;;26.60;43.40;;;;;;4918105;29;20043;-81
2022/05/22 09:50:45;;;;;;;4.38;1.80;;;26.90;44.20;;;;;;4917821;29;20044;-80
2022/05/22 09:53:31;;;;;;;14.77;3.67;;;27.10;43.90;;;;;;4933070;29;20095;-85
2022/05/22 09:56:14;;;;;;;5.20;1.95;;;27.70;44.80;;;;;;4917788;29;20095;-82
2022/05/22 09:59:15;;;;;;;4.07;1.73;;;27.30;43.00;;;;;;4918993;29;20030;-84
2022/05/22 10:01:43;;;;;;;5.38;1.60;;;27.10;42.80;;;;;;4918564;29;20071;-86
2022/05/22 10:04:36;;;;;;;6.05;1.90;;;27.00;42.60;;;;;;4933559;29;20372;-77
2022/05/22 10:07:33;;;;;;;14.60;3.38;;;27.20;42.40;;;;;;4932796;29;20071;-79
2022/05/22 10:10:32;;;;;;;5.20;1.50;;;27.60;43.40;;;;;;4933607;29;20556;-79
2022/05/22 10:13:04;;;;;;;5.05;2.15;;;27.30;41.90;;;;;;4957565;28;20039;-83
2022/05/22 10:16:12;;;;;;;5.13;1.70;;;27.60;42.10;;;;;;4956150;28;20442;-78
2022/05/22 10:19:20;;;;;;;4.47;1.70;;;27.20;42.20;;;;;;4955371;28;20031;-83
2022/05/22 10:22:09;;;;;;;6.40;1.80;;;27.00;43.90;;;;;;5022023;28;20078;-85
2022/05/22 10:24:59;;;;;;;5.80;1.60;;;27.20;43.50;;;;;;5052840;28;20032;-81
2022/05/22 10:27:37;;;;;;;5.15;2.00;;;27.00;43.30;;;;;;5052280;28;20021;-79
2022/05/22 10:30:06;;;;;;;3.42;1.70;;;27.20;42.80;;;;;;5053861;28;20516;-78
2022/05/22 10:32:38;;;;;;;4.68;2.00;;;27.40;43.40;;;;;;5072137;28;20056;-81
2022/05/22 10:35:18;;;;;;;5.45;1.80;;;27.60;43.50;;;;;;5071741;28;20059;-80
2022/05/22 10:37:52;;;;;;;3.22;1.70;;;27.20;41.70;;;;;;5071717;28;20039;-82
2022/05/22 10:40:21;;;;;;;3.90;1.80;;;27.20;42.40;;;;;;5064384;28;20020;-82
2022/05/22 10:42:52;;;;;;;11.43;6.53;;;26.90;43.60;;;;;;5052197;28;20036;-84
2022/05/22 10:45:34;;;;;;;5.25;1.90;;;27.20;44.00;;;;;;5048900;28;20021;-81
2022/05/22 10:48:17;;;;;;;4.13;1.75;;;27.20;43.20;;;;;;5042886;28;20037;-85
2022/05/22 10:50:57;;;;;;;5.43;1.67;;;27.20;43.30;;;;;;5052236;28;20032;-78
2022/05/22 10:53:31;;;;;;;6.28;2.15;;;27.20;42.50;;;;;;5031076;28;20052;-79
2022/05/22 10:56:13;;;;;;;4.68;1.80;;;27.00;42.30;;;;;;5055215;28;20029;-81
2022/05/22 10:58:51;;;;;;;7.40;1.80;;;27.20;43.70;;;;;;5051093;28;20063;-84
2022/05/22 11:01:19;;;;;;;6.53;1.80;;;27.10;43.80;;;;;;5050570;28;20048;-79
2022/05/22 11:03:47;;;;;;;4.53;1.65;;;26.90;43.40;;;;;;5052074;28;20039;-86
2022/05/22 11:06:22;;;;;;;5.93;1.70;;;26.80;44.00;;;;;;5066316;28;20024;-79
2022/05/22 11:08:53;;;;;;;4.10;1.73;;;26.80;43.20;;;;;;5053538;28;20021;-78
2022/05/22 11:11:35;;;;;;;4.78;1.90;;;26.80;43.10;;;;;;5050194;28;20100;-80
2022/05/22 11:14:09;;;;;;;4.57;1.73;;;26.90;45.10;;;;;;5050334;28;20425;-79
2022/05/22 11:16:37;;;;;;;4.15;1.60;;;26.60;44.20;;;;;;5066805;28;20028;-79
2022/05/22 11:19:11;;;;;;;3.80;1.58;;;26.40;44.30;;;;;;5070112;28;20435;-82
2022/05/22 11:21:51;;;;;;;4.95;1.70;;;26.70;44.10;;;;;;5069724;28;20055;-83
2022/05/22 11:24:52;;;;;;;4.95;1.85;;;26.60;44.10;;;;;;5070223;28;20021;-81
2022/05/22 11:27:37;;;;;;;;;;;26.40;42.50;;;;;;5069998;28;20106;-82
2022/05/22 11:30:31;;;;;;;3.75;1.77;;;26.90;45.30;;;;;;5033789;28;19913;-77
2022/05/22 11:33:29;;;;;;;4.00;1.70;;;27.20;43.80;;;;;;5069687;28;20097;-82
2022/05/22 11:36:34;;;;;;;3.83;1.70;;;27.00;43.50;;;;;;5069952;28;20021;-78
2022/05/22 11:39:24;;;;;;;5.43;1.98;;;27.10;44.00;;;;;;5070061;28;20558;-80
2022/05/22 11:41:58;;;;;;;4.85;2.03;;;26.90;44.50;;;;;;5050233;28;20032;-83
2022/05/22 11:44:48;;;;;;;4.15;1.63;;;26.80;43.60;;;;;;5045964;28;20055;-80
2022/05/22 11:47:46;;;;;;;3.88;1.75;;;27.20;46.00;;;;;;5086282;28;20060;-78
2022/05/22 11:50:31;;;;;;;4.30;1.65;;;27.60;43.60;;;;;;5012282;28;20057;-79
2022/05/22 11:53:16;;;;;;;5.07;1.67;;;27.50;43.40;;;;;;5028443;28;20072;-79
2022/05/22 11:55:50;;;;;;;3.78;1.55;;;27.50;43.30;;;;;;5028205;28;20037;-80
2022/05/22 11:58:19;;;;;;;4.07;1.80;;;27.50;44.00;;;;;;5005101;28;20030;-80
2022/05/22 12:00:51;;;;;;;6.88;1.70;;;27.90;43.70;;;;;;5015393;28;21475;-80
2022/05/22 12:03:46;;;;;;;4.45;1.60;;;27.50;43.80;;;;;;5010495;28;20084;-79
2022/05/22 12:06:33;;;;;;;2.60;1.45;;;27.50;44.60;;;;;;4991806;28;20045;-78
2022/05/22 12:09:40;;;;;;;4.75;1.60;;;27.90;43.30;;;;;;5004154;28;20033;-86
2022/05/22 12:12:42;;;;;;;3.25;1.40;;;27.90;43.80;;;;;;4990080;28;20114;-87
2022/05/22 12:15:45;;;;;;;2.72;1.55;;;27.90;43.20;;;;;;4991750;28;20058;-84
2022/05/22 12:18:49;;;;;;;3.17;1.63;;;27.70;44.40;;;;;;4961202;28;20042;-80
2022/05/22 12:21:19;;;;;;;3.30;1.67;;;27.30;44.50;;;;;;4972294;28;20135;-80
2022/05/22 12:23:50;;;;;;;5.38;1.70;;;27.40;43.70;;;;;;4972189;28;20043;-87
2022/05/22 12:26:17;;;;;;;5.82;1.60;;;27.50;43.60;;;;;;4986374;28;20040;-77
2022/05/22 12:28:54;;;;;;;5.00;1.95;;;27.70;44.80;;;;;;4991533;28;20034;-85
2022/05/22 12:31:48;;;;;;;5.20;1.70;;;27.90;44.40;;;;;;4991566;28;20029;-78
2022/05/22 12:34:21;;;;;;;5.47;1.63;;;28.00;42.90;;;;;;4990553;28;20396;-82
2022/05/22 12:36:52;;;;;;;4.60;1.80;;;28.00;43.70;;;;;;4990107;28;20031;-77
2022/05/22 12:39:19;;;;;;;3.90;1.70;;;27.90;43.10;;;;;;4993053;28;20057;-79
2022/05/22 12:42:04;;;;;;;4.85;1.98;;;27.50;43.10;;;;;;4997232;28;20039;-79
2022/05/22 12:44:30;;;;;;;4.03;1.60;;;27.20;43.40;;;;;;5035391;28;20025;-80
2022/05/22 12:46:57;;;;;;;3.47;1.75;;;27.10;43.30;;;;;;5035898;28;20036;-85
2022/05/22 12:49:30;;;;;;;3.70;1.90;;;26.90;44.10;;;;;;5035475;28;20021;-82
2022/05/22 12:51:59;;;;;;;4.47;1.73;;;27.00;44.20;;;;;;5035407;28;20056;-78
2022/05/22 12:54:26;;;;;;;4.03;1.60;;;27.20;43.30;;;;;;5036518;28;20483;-78
2022/05/22 12:56:53;;;;;;;3.88;1.77;;;27.10;44.10;;;;;;5035792;28;20116;-80
2022/05/22 12:59:27;;;;;;;4.53;2.00;;;26.90;43.70;;;;;;5037304;28;20453;-91
2022/05/22 13:01:58;;;;;;;3.72;1.83;;;26.90;43.90;;;;;;5036517;28;20255;-77
2022/05/22 13:04:54;;;;;;;4.65;1.73;;;27.10;44.00;;;;;;5036527;28;20108;-79
2022/05/22 13:07:29;;;;;;;5.00;2.00;;;27.20;43.90;;;;;;5036347;28;20030;-80
2022/05/22 13:09:55;;;;;;;6.45;1.80;;;27.20;43.50;;;;;;5035070;28;20514;-84
2022/05/22 13:12:31;;;;;;;4.13;1.80;;;27.00;43.40;;;;;;5035465;28;20029;-82
2022/05/22 13:15:14;;;;;;;4.40;1.70;;;26.90;43.50;;;;;;5036086;28;20056;-82
2022/05/22 13:17:52;;;;;;;3.67;1.80;;;26.90;43.50;;;;;;5035015;28;20021;-79
2022/05/22 13:20:48;;;;;;;4.35;1.80;;;27.30;44.40;;;;;;5034827;28;20028;-79
2022/05/22 13:23:23;;;;;;;3.35;1.63;;;27.30;43.50;;;;;;5063133;28;20075;-77